Timeline UpdatesTrip UpdatesNews PostsPvt PostsTravel TipsAdmin PostsConv PostsFollowed PostsChat RequestsBlog PostsPNR Posts

Disclaimer
Search
 
 
Tue Sep 2, 2014 04:54:05 ISTHomeTrainsΣChainsAtlasPNRForumGalleryNewsFAQTripsMembersLoginFeedback
No Recent News for this Train
Other Trains in the News **new
Latest...
-
Tue Feb 11, 2014 (11:47AM)
⇐ Return Journey: Train# 13020

13019/Bagh Express

Time-Table HAS CHANGED.
Yesterday (11:39PM)
Change Departure Station:
Change Arrival Station:
Post a Train Travel TipPost a Train Travel Tip **new
Post a Comment/Question/Picture/VideoPost a Comment/Question/Picture/Video
Pantry/Catering
✕ NO Pantry Car
✓ Catering Avbl
Loco/Rake Reversals
RMU/Rampur Junction (3); LJN/Lucknow Junction (6);
RSA - Rake Sharing
Rake/Coach Composition
LOCO-SLR-GS-GS-GS-S1-S2-S3-S4-S5-S6-S7-B1-A1-GS-GS-SLR
Loco
HWH WAP-4 (HWH-BJU); IZN WDP-4D (BJU-KGM)
News    PNR    Forum    Time-Table    Availability    Fare Chart    Map    Arr/Dep History    Trips    Gallery    ΣChains    X/O    Timeline    
Travel Time: 35h 45m    64 halts    Distance: 1519 km    Avg Speed: 42 km/hr
Type: Mail/Express
Zone: ER/Eastern
Departs @ 21:45
Platform# 11
SMTWTFS
Kolkata Howrah Junction/HWH 
Arrives @ 09:30 +2 nights
Platform# 1
SMTWTFS
Kathgodam/KGM 

64 halts. 277 intermediate Stations between Kolkata Howrah Junction and Kathgodam

Show ALL intermediate Stations  Show Old Time-Table

#CodeStation NameX/OArrivesAvgDepartsAvgHaltPFDay#KmSpeedElevZoneAddress
1HWH»Kolkata Howrah Junction (23)»  -21:45-1110.05310mERHowrah 711101, West Bengal
2SRPSerampore (4)X  22:05 22:07-22:06 22:08-1m--119.54311mERdist - hooghly, West Bengal
3BDCBandel Junction (7)  22:36-22:41-5m--139.57914mERdist - HOOGHLY, West Bengal
4BWNBarddhaman Junction (8)X  23:32-23:37-5m21106.77834mERDist - Barddhaman, West Bengal
5DGRDurgapur (5)  00:26-00:28-2m32170.37971mERDurgapur, West Bengal
6UDLAndal Junction (6)X  00:41-00:43-2m--2187.35586mERAndal, West Bengal
7RNGRaniGanj (4)  00:51-00:53-2m22194.64392mERRaniganj, West Bengal
8ASNAsansol Junction (7)XO  01:18-01:23-5m--2212.763113mERDist - bardhaman, West Bengal
9CRJChittaranjan (3)X  01:47-01:48-1m32237.883182mERMihijam, Jharkhand
10MDPMadhupur Junction (4)X  02:28 02:29-02:33 02:34-5m--2294.270254mER06432-224478, Jharkhand
11JSMEJasidih Junction (5)X  02:59-03:04-5m22323.366271mERJasidih, Jharkhand
12STLSimultala (2)XO  03:27-03:28-1m--2348.720247mERSimultala, Bihar
13JAJJhajha (4)  04:25-04:35-10m--2367.487143mECRJhajha, Bihar
14JMUJamui (3)X  04:53-04:55-2m--2393.46681mECRState Highway 72, Bihar
15KIULKiul Junction (5)  05:20-05:25-5m--2420.71453mECRDist. Lakhisarai, Bihar
16LKRLuckeesarai Junction (2)  05:31-05:33-2m22422.02652mECRLakhisarai, Bihar
17BRYABarhiya (3)XO  06:05 06:08-06:07 06:09-2 1m--2437.12147mECRBarahiya, Bihar
18DKGSDinkar Gram Simaria (3)  06:55-06:56-1m--2453.51947mECRSimaria Station, Bihar
19BJUBarauni Junction (9)07:13 07:15-07:33 07:35-20m82459.54749mECRBegusarai, Bihar
20BCABachwara Junction (3)  07:52 07:56-07:54 07:57-2 1m--2475.95149mECRBegusarai, Bihar
21DSSDalsingh Sarai (2)X  08:11 08:10-08:13 08:11-2 1m12486.952 ECR06278-221238, Bihar
22NAZJNazirGanj (2)  08:21 08:20-08:23 08:21-2 1m--2494.84251mECRNazirGanj, Bihar
23UJPUjiarpur (2)X  08:30-08:32 08:31-2 1m--2501.02951mECRSamastipur, Bihar
24SPJSamastipur Junction (9)X  08:49 08:50-08:55-6 5m92510.13855mECRSamastipur, Bihar
25KPGMKarpurigram (3)  09:06 09:05-09:08 09:06-2 1m--2516.35551mECRState Highway 49, Bihar
26KRBPKhudiram B Pusa (2)  09:15 09:14-09:17 09:15-2 1m--2523.76252mECRDistt. Samastipur, Bihar
27DOLDholi (2)X  09:29 09:28-09:31 09:29-2 1m--2537.149 ECRDistt. Muzaffarpur, Bihar
28MFPMuzaffarpur Junction (6)X  10:00-10:10 10:05-10 5m42562.24457mECRMuzaffarpur, Bihar
29GRLGoraul (2)  10:34 10:40-10:36 10:43-2 3m22588.17157mECRVAISHALI, Bihar
30BNRBhagwanpur (2)  10:44 10:50-10:46 10:53-2 3m22596.45460mECRBhagwanpur, Bihar
31HJPHajipur Junction (3)X  11:10 11:15-11:15 11:18-5 3m--2616.03355mECR06224-272230, Bihar
32SEESonpur Junction (4)  11:25 11:28-11:35 11:33-10 5m--2621.55256mECRSaran, Bihar
33NYONayagaon (2)  11:47 11:46-11:49 11:47-2 1m--2632.95953mECRNayagaon Sarai, Bihar
34DGADighwara (2)XO  12:02 11:59-12:04 12:02-2 3m--2644.72960mECR06158-281240, Bihar
35CPRChhapra Junction (6)X  13:05-13:15-10m142675.66858mNERDistt: Saran, Bihar
36DDPDaudpur (2)  13:32-13:34-2m--2694.95759mNERChhapra, Bihar
37EKMAEkma (3)  13:43-13:45-2m--2703.54464mNERSaran, Bihar
38CWChainwa (2)X  13:55-13:57-2m--2710.84963mNERSiwan, Bihar
39DDADuraundha Junction (3)O  14:07-14:09-2m12719.03064mNERDistt: Siwan, Bihar
40SVSiwan Junction (4)X  14:45-14:50-5m--2736.87770mNERSiwan, Bihar
41ZRDEJiradei (2)X  14:58-15:00-2m--2747.16069mNERSiwan, Bihar
42MWMairwa (2)X  15:11-15:13-2m--2758.14973mNERMairwa, Bihar
43BTKBankata (2)  15:21-15:23-2m--2764.65473mNERDeoria, Uttar Pradesh
44BHTRBhatpar Rani (2)  15:32-15:34-2m--2772.74873mNERDeoria, Uttar Pradesh
45BTTBhatni Junction (5)X  15:50-15:55-5m--2785.56973mNERDeoria, Uttar Pradesh
46DEOSDeoria Sadar (3)X  16:13-16:15-2m22806.35179mNERDeoria- 274001, Uttar Pradesh
47CCChauri Chaura (2)  16:49 16:44-16:51 16:45-2 1m--2831.12484mNERGorakhpur- PinCode:- 273201, Uttar Pradesh
48GKPGorakhpur Junction (10)X  17:40 17:45-18:00 18:05-20m22855.45784mNERGorakhpur 273001, Uttar Pradesh
49KLDKhalilabad (3)X  18:36 18:41-18:38 18:42-2 1m--2889.36386mNERKhalilabad- 272175, Uttar Pradesh
50BSTBasti (4)X  19:05 19:10-19:10 19:15-5m12918.97190mNERBasti 272001, Uttar Pradesh
51GDGonda Junction (3)X  20:25 20:30-20:35 20:40-10m121007.375110mNERGonda 271001, Uttar Pradesh
52JLDJarwal Road (2)  21:10 21:17-21:12 21:18-2 1m121053.462112mNERBehraich, Uttar Pradesh
53BBKBarabanki Junction (4)O  22:00-22:02-2m221096.640122mNRPin-225001, Uttar Pradesh
54BNZBadshahnagar (2)  22:39-22:40-1m121121.28116mNERLucknow, Uttar Pradesh
55LJNLucknow Junction (6)X00:01-00:25-24m131132.372126mNERLucknow, Uttar Pradesh
56HRIHardoi (5)X01:56 01:49-01:58 01:50-2 1m--31233.462146mNRHardoi, Uttar Pradesh
57ROZARoza Junction (4)X  02:48 02:44-02:50 02:45-2 1m--31289.024156mNRShahjahanpur, Uttar Pradesh
58SPNShahjahanpur Junction (3)X  03:08 03:03-03:13 03:08-5m--31296.377156mNRShahjahanpur, Uttar Pradesh
59BEBareilly Junction (4)X  04:12 04:03-04:20 04:10-8 7m231366.845174mNRBareilly, Uttar Pradesh
60RMURampur Junction (3)05:35 05:34-06:00 05:35-25 1m131429.832190mNRRampur, Uttar Pradesh
61BLQRBilaspur Road (1)  06:26-06:27-1m131456.751196mNERRampur, Uttar Pradesh
62RUPCRudrapur City (2)  06:48-06:53-5m131474.724208mNERUdham Singh Nagar, Uttarakhand
63HLDDHaldi Road  07:28-07:30-2m--31488.713236mNERNH 87, Uttarakhand
64LKULal Kuan Junction (4)X  08:05-08:10-5m131496.319262mNERLalkuan, Uttarakhand
65HDWHaldwani (3)  09:01-09:03-2m131512.713443mNERHaldwani, Uttarakhand
66KGM•Kathgodam (3)•  09:30--131518.6-520mNERKathgodam, Uttarakhand
Scroll to Top
Scroll to Bottom